sensor_id;sensor_type;location;lat;lon;timestamp;P1;durP1;ratioP1;P2;durP2;ratioP2
23242;SDS011;11790;49.578;11.214;2023-02-28T00:02:06;10.05;;;5.28;;
23242;SDS011;11790;49.578;11.214;2023-02-28T00:07:06;10.05;;;5.85;;
23242;SDS011;11790;49.578;11.214;2023-02-28T00:12:06;13.73;;;5.95;;
23242;SDS011;11790;49.578;11.214;2023-02-28T00:17:10;10.02;;;5.72;;
23242;SDS011;11790;49.578;11.214;2023-02-28T00:22:10;12.98;;;5.43;;
23242;SDS011;11790;49.578;11.214;2023-02-28T00:27:10;10.35;;;5.70;;
23242;SDS011;11790;49.578;11.214;2023-02-28T00:32:10;11.93;;;5.53;;
23242;SDS011;11790;49.578;11.214;2023-02-28T00:37:10;11.38;;;5.72;;
23242;SDS011;11790;49.578;11.214;2023-02-28T00:42:12;10.25;;;5.30;;
23242;SDS011;11790;49.578;11.214;2023-02-28T00:47:12;10.70;;;6.07;;
23242;SDS011;11790;49.578;11.214;2023-02-28T00:52:12;14.15;;;6.10;;
23242;SDS011;11790;49.578;11.214;2023-02-28T00:57:12;10.70;;;5.95;;
23242;SDS011;11790;49.578;11.214;2023-02-28T01:02:13;13.18;;;6.00;;
23242;SDS011;11790;49.578;11.214;2023-02-28T01:07:13;10.18;;;5.57;;
23242;SDS011;11790;49.578;11.214;2023-02-28T01:12:14;9.20;;;5.38;;
23242;SDS011;11790;49.578;11.214;2023-02-28T01:17:14;12.32;;;6.72;;
23242;SDS011;11790;49.578;11.214;2023-02-28T01:22:14;13.07;;;5.93;;
23242;SDS011;11790;49.578;11.214;2023-02-28T01:27:14;10.25;;;5.90;;
23242;SDS011;11790;49.578;11.214;2023-02-28T01:32:15;13.75;;;6.90;;
23242;SDS011;11790;49.578;11.214;2023-02-28T01:37:15;12.20;;;6.50;;
23242;SDS011;11790;49.578;11.214;2023-02-28T01:42:15;11.25;;;6.40;;
23242;SDS011;11790;49.578;11.214;2023-02-28T01:47:15;13.07;;;7.13;;
23242;SDS011;11790;49.578;11.214;2023-02-28T01:52:15;15.27;;;7.00;;
23242;SDS011;11790;49.578;11.214;2023-02-28T01:57:18;12.23;;;6.32;;
23242;SDS011;11790;49.578;11.214;2023-02-28T02:02:20;15.77;;;6.82;;
23242;SDS011;11790;49.578;11.214;2023-02-28T02:07:21;12.13;;;6.45;;
23242;SDS011;11790;49.578;11.214;2023-02-28T02:12:27;11.07;;;6.75;;
23242;SDS011;11790;49.578;11.214;2023-02-28T02:17:38;13.60;;;7.32;;
23242;SDS011;11790;49.578;11.214;2023-02-28T02:38:08;15.63;;;6.63;;
23242;SDS011;11790;49.578;11.214;2023-02-28T02:48:11;13.55;;;7.43;;
23242;SDS011;11790;49.578;11.214;2023-02-28T02:53:14;11.05;;;6.85;;
23242;SDS011;11790;49.578;11.214;2023-02-28T02:58:15;17.65;;;7.65;;
23242;SDS011;11790;49.578;11.214;2023-02-28T03:03:16;14.07;;;7.30;;
23242;SDS011;11790;49.578;11.214;2023-02-28T03:08:20;18.23;;;8.65;;
23242;SDS011;11790;49.578;11.214;2023-02-28T03:13:25;14.45;;;7.65;;
23242;SDS011;11790;49.578;11.214;2023-02-28T03:23:43;17.42;;;8.43;;
23242;SDS011;11790;49.578;11.214;2023-02-28T03:28:50;15.98;;;7.97;;
23242;SDS011;11790;49.578;11.214;2023-02-28T03:33:56;15.52;;;7.88;;
23242;SDS011;11790;49.578;11.214;2023-02-28T03:39:04;15.77;;;8.38;;
23242;SDS011;11790;49.578;11.214;2023-02-28T03:44:07;15.77;;;8.15;;
23242;SDS011;11790;49.578;11.214;2023-02-28T03:49:28;15.27;;;8.23;;
23242;SDS011;11790;49.578;11.214;2023-02-28T03:54:31;15.20;;;8.40;;
23242;SDS011;11790;49.578;11.214;2023-02-28T03:59:39;17.35;;;8.57;;
23242;SDS011;11790;49.578;11.214;2023-02-28T04:04:41;15.70;;;8.95;;
23242;SDS011;11790;49.578;11.214;2023-02-28T04:09:48;18.35;;;9.48;;
23242;SDS011;11790;49.578;11.214;2023-02-28T04:14:48;15.73;;;8.77;;
23242;SDS011;11790;49.578;11.214;2023-02-28T04:19:48;16.98;;;9.30;;
23242;SDS011;11790;49.578;11.214;2023-02-28T04:24:49;16.33;;;8.93;;
23242;SDS011;11790;49.578;11.214;2023-02-28T04:29:49;20.65;;;9.95;;
23242;SDS011;11790;49.578;11.214;2023-02-28T04:34:50;17.52;;;9.45;;
23242;SDS011;11790;49.578;11.214;2023-02-28T04:39:50;19.92;;;9.38;;
23242;SDS011;11790;49.578;11.214;2023-02-28T04:44:50;17.80;;;9.68;;
23242;SDS011;11790;49.578;11.214;2023-02-28T04:49:50;21.52;;;10.32;;
23242;SDS011;11790;49.578;11.214;2023-02-28T04:54:50;17.38;;;9.52;;
23242;SDS011;11790;49.578;11.214;2023-02-28T04:59:50;18.13;;;9.73;;
23242;SDS011;11790;49.578;11.214;2023-02-28T05:04:50;20.52;;;10.40;;
23242;SDS011;11790;49.578;11.214;2023-02-28T05:09:51;19.30;;;9.85;;
23242;SDS011;11790;49.578;11.214;2023-02-28T05:14:51;18.13;;;9.35;;
23242;SDS011;11790;49.578;11.214;2023-02-28T05:19:51;17.42;;;9.88;;
23242;SDS011;11790;49.578;11.214;2023-02-28T05:24:51;19.40;;;10.38;;
23242;SDS011;11790;49.578;11.214;2023-02-28T05:29:51;18.38;;;9.85;;
23242;SDS011;11790;49.578;11.214;2023-02-28T05:34:51;20.83;;;10.27;;
23242;SDS011;11790;49.578;11.214;2023-02-28T05:39:52;19.33;;;9.43;;
23242;SDS011;11790;49.578;11.214;2023-02-28T05:44:52;22.48;;;9.57;;
23242;SDS011;11790;49.578;11.214;2023-02-28T05:49:52;22.13;;;10.30;;
23242;SDS011;11790;49.578;11.214;2023-02-28T05:54:52;20.25;;;9.98;;
23242;SDS011;11790;49.578;11.214;2023-02-28T05:59:52;18.80;;;10.23;;
23242;SDS011;11790;49.578;11.214;2023-02-28T06:04:52;18.35;;;10.18;;
23242;SDS011;11790;49.578;11.214;2023-02-28T06:09:53;22.83;;;10.05;;
23242;SDS011;11790;49.578;11.214;2023-02-28T06:14:53;19.92;;;10.00;;
23242;SDS011;11790;49.578;11.214;2023-02-28T06:19:53;18.83;;;9.88;;
23242;SDS011;11790;49.578;11.214;2023-02-28T06:24:53;19.23;;;10.18;;
23242;SDS011;11790;49.578;11.214;2023-02-28T06:29:54;21.38;;;10.88;;
23242;SDS011;11790;49.578;11.214;2023-02-28T06:34:57;20.30;;;10.43;;
23242;SDS011;11790;49.578;11.214;2023-02-28T06:39:58;20.92;;;10.40;;
23242;SDS011;11790;49.578;11.214;2023-02-28T06:44:58;22.52;;;10.98;;
23242;SDS011;11790;49.578;11.214;2023-02-28T06:49:58;23.92;;;11.65;;
23242;SDS011;11790;49.578;11.214;2023-02-28T06:55:00;28.02;;;13.05;;
23242;SDS011;11790;49.578;11.214;2023-02-28T07:00:02;24.92;;;11.07;;
23242;SDS011;11790;49.578;11.214;2023-02-28T07:05:03;25.08;;;12.52;;
23242;SDS011;11790;49.578;11.214;2023-02-28T07:10:03;28.63;;;12.77;;
23242;SDS011;11790;49.578;11.214;2023-02-28T07:15:04;23.02;;;12.95;;
23242;SDS011;11790;49.578;11.214;2023-02-28T07:20:05;26.17;;;12.98;;
23242;SDS011;11790;49.578;11.214;2023-02-28T07:25:05;23.55;;;13.00;;
23242;SDS011;11790;49.578;11.214;2023-02-28T07:30:06;19.20;;;11.40;;
23242;SDS011;11790;49.578;11.214;2023-02-28T07:35:06;22.05;;;11.30;;
23242;SDS011;11790;49.578;11.214;2023-02-28T07:40:09;19.15;;;10.73;;
23242;SDS011;11790;49.578;11.214;2023-02-28T07:45:11;16.88;;;10.25;;
23242;SDS011;11790;49.578;11.214;2023-02-28T07:50:13;18.17;;;10.35;;
23242;SDS011;11790;49.578;11.214;2023-02-28T07:55:13;16.02;;;9.68;;
23242;SDS011;11790;49.578;11.214;2023-02-28T08:00:14;18.02;;;9.43;;
23242;SDS011;11790;49.578;11.214;2023-02-28T08:05:14;19.57;;;9.07;;
23242;SDS011;11790;49.578;11.214;2023-02-28T08:10:14;16.00;;;9.57;;
23242;SDS011;11790;49.578;11.214;2023-02-28T08:15:14;14.87;;;8.70;;
23242;SDS011;11790;49.578;11.214;2023-02-28T08:20:14;15.40;;;8.45;;
23242;SDS011;11790;49.578;11.214;2023-02-28T08:25:15;16.38;;;8.98;;
23242;SDS011;11790;49.578;11.214;2023-02-28T08:30:15;15.70;;;8.75;;
23242;SDS011;11790;49.578;11.214;2023-02-28T08:35:15;15.15;;;9.23;;
23242;SDS011;11790;49.578;11.214;2023-02-28T08:40:16;16.17;;;8.80;;
23242;SDS011;11790;49.578;11.214;2023-02-28T08:45:18;12.60;;;8.40;;
23242;SDS011;11790;49.578;11.214;2023-02-28T08:50:18;13.55;;;8.60;;
23242;SDS011;11790;49.578;11.214;2023-02-28T08:55:19;14.80;;;8.20;;
23242;SDS011;11790;49.578;11.214;2023-02-28T09:00:19;13.43;;;8.38;;
23242;SDS011;11790;49.578;11.214;2023-02-28T09:05:19;15.45;;;8.30;;
23242;SDS011;11790;49.578;11.214;2023-02-28T09:10:19;13.70;;;7.43;;
23242;SDS011;11790;49.578;11.214;2023-02-28T09:15:20;11.10;;;7.38;;
23242;SDS011;11790;49.578;11.214;2023-02-28T09:20:20;15.70;;;7.95;;
23242;SDS011;11790;49.578;11.214;2023-02-28T09:25:20;13.80;;;7.30;;
23242;SDS011;11790;49.578;11.214;2023-02-28T09:30:20;11.93;;;7.40;;
23242;SDS011;11790;49.578;11.214;2023-02-28T09:35:21;15.05;;;7.50;;
23242;SDS011;11790;49.578;11.214;2023-02-28T09:40:22;11.98;;;7.20;;
23242;SDS011;11790;49.578;11.214;2023-02-28T09:45:39;12.68;;;7.20;;
23242;SDS011;11790;49.578;11.214;2023-02-28T09:51:02;15.48;;;8.27;;
23242;SDS011;11790;49.578;11.214;2023-02-28T09:56:02;13.18;;;7.75;;
23242;SDS011;11790;49.578;11.214;2023-02-28T10:01:05;12.70;;;7.68;;
23242;SDS011;11790;49.578;11.214;2023-02-28T10:06:14;14.13;;;7.85;;
23242;SDS011;11790;49.578;11.214;2023-02-28T10:11:16;10.95;;;6.75;;
23242;SDS011;11790;49.578;11.214;2023-02-28T10:16:22;10.65;;;6.93;;
23242;SDS011;11790;49.578;11.214;2023-02-28T10:21:31;13.60;;;7.47;;
23242;SDS011;11790;49.578;11.214;2023-02-28T10:26:33;8.57;;;6.13;;
23242;SDS011;11790;49.578;11.214;2023-02-28T10:31:33;10.68;;;6.05;;
23242;SDS011;11790;49.578;11.214;2023-02-28T10:36:34;9.02;;;6.07;;
23242;SDS011;11790;49.578;11.214;2023-02-28T10:41:34;10.48;;;6.28;;
23242;SDS011;11790;49.578;11.214;2023-02-28T10:46:36;11.35;;;5.70;;
23242;SDS011;11790;49.578;11.214;2023-02-28T10:51:37;10.77;;;5.85;;
23242;SDS011;11790;49.578;11.214;2023-02-28T10:56:37;10.05;;;5.60;;
23242;SDS011;11790;49.578;11.214;2023-02-28T11:01:41;8.73;;;5.72;;
23242;SDS011;11790;49.578;11.214;2023-02-28T11:06:42;11.10;;;5.85;;
23242;SDS011;11790;49.578;11.214;2023-02-28T11:11:43;8.50;;;5.65;;
23242;SDS011;11790;49.578;11.214;2023-02-28T11:16:43;7.97;;;5.18;;
23242;SDS011;11790;49.578;11.214;2023-02-28T11:21:47;8.85;;;5.93;;
23242;SDS011;11790;49.578;11.214;2023-02-28T11:26:48;7.20;;;5.47;;
23242;SDS011;11790;49.578;11.214;2023-02-28T11:37:01;10.30;;;5.70;;
23242;SDS011;11790;49.578;11.214;2023-02-28T11:47:14;9.45;;;6.13;;
23242;SDS011;11790;49.578;11.214;2023-02-28T11:52:21;8.07;;;5.27;;
23242;SDS011;11790;49.578;11.214;2023-02-28T11:57:44;9.57;;;6.50;;
23242;SDS011;11790;49.578;11.214;2023-02-28T12:02:54;9.13;;;5.97;;
23242;SDS011;11790;49.578;11.214;2023-02-28T12:08:03;9.18;;;5.57;;
23242;SDS011;11790;49.578;11.214;2023-02-28T12:33:32;8.80;;;5.88;;
23242;SDS011;11790;49.578;11.214;2023-02-28T12:38:35;9.10;;;5.63;;
23242;SDS011;11790;49.578;11.214;2023-02-28T12:43:46;8.85;;;5.70;;
23242;SDS011;11790;49.578;11.214;2023-02-28T12:48:49;9.82;;;6.43;;
23242;SDS011;11790;49.578;11.214;2023-02-28T13:09:40;11.73;;;6.63;;
23242;SDS011;11790;49.578;11.214;2023-02-28T13:14:40;12.45;;;6.80;;
23242;SDS011;11790;49.578;11.214;2023-02-28T13:19:42;11.18;;;6.97;;
23242;SDS011;11790;49.578;11.214;2023-02-28T13:29:46;10.73;;;6.57;;
23242;SDS011;11790;49.578;11.214;2023-02-28T13:39:51;10.10;;;6.57;;
23242;SDS011;11790;49.578;11.214;2023-02-28T13:55:20;9.55;;;6.55;;
23242;SDS011;11790;49.578;11.214;2023-02-28T14:05:32;11.25;;;6.88;;
23242;SDS011;11790;49.578;11.214;2023-02-28T14:10:41;11.60;;;7.68;;
23242;SDS011;11790;49.578;11.214;2023-02-28T14:20:42;10.43;;;6.93;;
23242;SDS011;11790;49.578;11.214;2023-02-28T14:26:03;10.50;;;7.15;;
23242;SDS011;11790;49.578;11.214;2023-02-28T14:31:13;11.32;;;7.18;;
23242;SDS011;11790;49.578;11.214;2023-02-28T14:36:17;9.95;;;6.88;;
23242;SDS011;11790;49.578;11.214;2023-02-28T14:41:20;10.45;;;7.55;;
23242;SDS011;11790;49.578;11.214;2023-02-28T14:46:21;11.23;;;7.80;;
23242;SDS011;11790;49.578;11.214;2023-02-28T14:51:22;12.27;;;6.82;;
23242;SDS011;11790;49.578;11.214;2023-02-28T14:56:24;10.25;;;6.97;;
23242;SDS011;11790;49.578;11.214;2023-02-28T15:01:26;13.30;;;7.38;;
23242;SDS011;11790;49.578;11.214;2023-02-28T15:06:27;10.60;;;6.80;;
23242;SDS011;11790;49.578;11.214;2023-02-28T15:11:27;9.80;;;6.75;;
23242;SDS011;11790;49.578;11.214;2023-02-28T15:16:31;11.07;;;7.55;;
23242;SDS011;11790;49.578;11.214;2023-02-28T15:21:36;11.20;;;7.80;;
23242;SDS011;11790;49.578;11.214;2023-02-28T15:26:41;12.95;;;7.70;;
23242;SDS011;11790;49.578;11.214;2023-02-28T15:31:46;14.07;;;8.10;;
23242;SDS011;11790;49.578;11.214;2023-02-28T15:36:47;17.37;;;8.37;;
23242;SDS011;11790;49.578;11.214;2023-02-28T15:41:48;10.30;;;7.70;;
23242;SDS011;11790;49.578;11.214;2023-02-28T15:51:58;15.68;;;8.82;;
23242;SDS011;11790;49.578;11.214;2023-02-28T15:57:01;14.38;;;8.48;;
23242;SDS011;11790;49.578;11.214;2023-02-28T16:07:17;21.98;;;9.27;;
23242;SDS011;11790;49.578;11.214;2023-02-28T16:12:18;13.10;;;8.48;;
23242;SDS011;11790;49.578;11.214;2023-02-28T16:17:23;14.23;;;8.95;;
23242;SDS011;11790;49.578;11.214;2023-02-28T16:22:24;14.00;;;8.52;;
23242;SDS011;11790;49.578;11.214;2023-02-28T16:27:26;16.98;;;9.40;;
23242;SDS011;11790;49.578;11.214;2023-02-28T16:32:27;17.38;;;9.35;;
23242;SDS011;11790;49.578;11.214;2023-02-28T16:37:28;17.08;;;9.35;;
23242;SDS011;11790;49.578;11.214;2023-02-28T16:42:28;15.90;;;10.13;;
23242;SDS011;11790;49.578;11.214;2023-02-28T16:47:30;17.70;;;9.75;;
23242;SDS011;11790;49.578;11.214;2023-02-28T16:52:32;20.48;;;11.40;;
23242;SDS011;11790;49.578;11.214;2023-02-28T16:57:32;20.05;;;10.15;;
23242;SDS011;11790;49.578;11.214;2023-02-28T17:02:33;23.90;;;12.88;;
23242;SDS011;11790;49.578;11.214;2023-02-28T17:07:33;19.95;;;10.60;;
23242;SDS011;11790;49.578;11.214;2023-02-28T17:12:33;20.52;;;9.93;;
23242;SDS011;11790;49.578;11.214;2023-02-28T17:17:34;19.77;;;11.60;;
23242;SDS011;11790;49.578;11.214;2023-02-28T17:22:34;21.40;;;11.02;;
23242;SDS011;11790;49.578;11.214;2023-02-28T17:27:34;20.50;;;11.25;;
23242;SDS011;11790;49.578;11.214;2023-02-28T17:32:34;24.17;;;12.97;;
23242;SDS011;11790;49.578;11.214;2023-02-28T17:37:34;24.80;;;13.32;;
23242;SDS011;11790;49.578;11.214;2023-02-28T17:42:35;25.35;;;12.60;;
23242;SDS011;11790;49.578;11.214;2023-02-28T17:47:35;29.77;;;14.45;;
23242;SDS011;11790;49.578;11.214;2023-02-28T17:52:35;26.42;;;14.27;;
23242;SDS011;11790;49.578;11.214;2023-02-28T17:57:36;31.38;;;15.57;;
23242;SDS011;11790;49.578;11.214;2023-02-28T18:02:36;33.60;;;16.30;;
23242;SDS011;11790;49.578;11.214;2023-02-28T18:07:37;31.38;;;15.88;;
23242;SDS011;11790;49.578;11.214;2023-02-28T18:12:38;32.17;;;15.75;;
23242;SDS011;11790;49.578;11.214;2023-02-28T18:17:38;29.20;;;15.77;;
23242;SDS011;11790;49.578;11.214;2023-02-28T18:22:39;32.77;;;16.37;;
23242;SDS011;11790;49.578;11.214;2023-02-28T18:27:40;32.00;;;15.43;;
23242;SDS011;11790;49.578;11.214;2023-02-28T18:32:52;34.15;;;17.23;;
23242;SDS011;11790;49.578;11.214;2023-02-28T18:37:52;29.00;;;14.85;;
23242;SDS011;11790;49.578;11.214;2023-02-28T18:42:53;34.33;;;17.42;;
23242;SDS011;11790;49.578;11.214;2023-02-28T18:47:53;33.47;;;16.75;;
23242;SDS011;11790;49.578;11.214;2023-02-28T18:52:53;37.28;;;17.58;;
23242;SDS011;11790;49.578;11.214;2023-02-28T18:57:53;35.33;;;17.63;;
23242;SDS011;11790;49.578;11.214;2023-02-28T19:02:53;37.03;;;17.70;;
23242;SDS011;11790;49.578;11.214;2023-02-28T19:07:54;43.88;;;18.73;;
23242;SDS011;11790;49.578;11.214;2023-02-28T19:12:54;45.22;;;21.73;;
23242;SDS011;11790;49.578;11.214;2023-02-28T19:17:54;41.58;;;21.55;;
23242;SDS011;11790;49.578;11.214;2023-02-28T19:22:54;48.05;;;22.67;;
23242;SDS011;11790;49.578;11.214;2023-02-28T19:27:55;36.00;;;19.35;;
23242;SDS011;11790;49.578;11.214;2023-02-28T19:32:55;39.25;;;19.20;;
23242;SDS011;11790;49.578;11.214;2023-02-28T19:37:55;40.67;;;19.05;;
23242;SDS011;11790;49.578;11.214;2023-02-28T19:42:56;36.63;;;17.73;;
23242;SDS011;11790;49.578;11.214;2023-02-28T19:47:56;31.00;;;16.55;;
23242;SDS011;11790;49.578;11.214;2023-02-28T19:52:56;37.97;;;16.60;;
23242;SDS011;11790;49.578;11.214;2023-02-28T19:57:56;35.33;;;17.25;;
23242;SDS011;11790;49.578;11.214;2023-02-28T20:02:56;31.88;;;16.30;;
23242;SDS011;11790;49.578;11.214;2023-02-28T20:07:57;35.35;;;17.40;;
23242;SDS011;11790;49.578;11.214;2023-02-28T20:12:57;36.85;;;18.52;;
23242;SDS011;11790;49.578;11.214;2023-02-28T20:17:57;41.72;;;20.63;;
23242;SDS011;11790;49.578;11.214;2023-02-28T20:22:59;41.00;;;22.05;;
23242;SDS011;11790;49.578;11.214;2023-02-28T20:27:59;40.42;;;18.05;;
23242;SDS011;11790;49.578;11.214;2023-02-28T20:32:59;36.67;;;18.95;;
23242;SDS011;11790;49.578;11.214;2023-02-28T20:37:59;38.50;;;20.13;;
23242;SDS011;11790;49.578;11.214;2023-02-28T20:42:59;41.65;;;20.15;;
23242;SDS011;11790;49.578;11.214;2023-02-28T20:48:01;38.03;;;20.23;;
23242;SDS011;11790;49.578;11.214;2023-02-28T20:53:01;43.47;;;20.52;;
23242;SDS011;11790;49.578;11.214;2023-02-28T20:58:01;44.92;;;20.90;;
23242;SDS011;11790;49.578;11.214;2023-02-28T21:03:02;48.85;;;22.80;;
23242;SDS011;11790;49.578;11.214;2023-02-28T21:08:02;53.83;;;23.38;;
23242;SDS011;11790;49.578;11.214;2023-02-28T21:13:02;70.25;;;27.58;;
23242;SDS011;11790;49.578;11.214;2023-02-28T21:18:02;65.03;;;31.95;;
23242;SDS011;11790;49.578;11.214;2023-02-28T21:23:02;56.28;;;25.55;;
23242;SDS011;11790;49.578;11.214;2023-02-28T21:28:03;58.47;;;27.10;;
23242;SDS011;11790;49.578;11.214;2023-02-28T21:33:03;52.42;;;25.02;;
23242;SDS011;11790;49.578;11.214;2023-02-28T21:38:03;45.08;;;22.05;;
23242;SDS011;11790;49.578;11.214;2023-02-28T21:43:04;42.95;;;21.75;;
23242;SDS011;11790;49.578;11.214;2023-02-28T21:48:04;46.58;;;21.50;;
23242;SDS011;11790;49.578;11.214;2023-02-28T21:53:04;47.28;;;21.67;;
23242;SDS011;11790;49.578;11.214;2023-02-28T21:58:04;42.20;;;20.95;;
23242;SDS011;11790;49.578;11.214;2023-02-28T22:03:04;48.42;;;23.20;;
23242;SDS011;11790;49.578;11.214;2023-02-28T22:08:04;52.22;;;23.38;;
23242;SDS011;11790;49.578;11.214;2023-02-28T22:13:05;49.85;;;23.48;;
23242;SDS011;11790;49.578;11.214;2023-02-28T22:18:05;48.35;;;21.98;;
23242;SDS011;11790;49.578;11.214;2023-02-28T22:23:06;48.73;;;21.70;;
23242;SDS011;11790;49.578;11.214;2023-02-28T22:28:06;49.67;;;22.10;;
23242;SDS011;11790;49.578;11.214;2023-02-28T22:33:06;48.33;;;21.63;;
23242;SDS011;11790;49.578;11.214;2023-02-28T22:38:06;55.40;;;21.38;;
23242;SDS011;11790;49.578;11.214;2023-02-28T22:43:07;49.35;;;21.50;;
23242;SDS011;11790;49.578;11.214;2023-02-28T22:48:07;46.45;;;20.98;;
23242;SDS011;11790;49.578;11.214;2023-02-28T22:53:07;45.33;;;20.15;;
23242;SDS011;11790;49.578;11.214;2023-02-28T22:58:08;39.80;;;18.73;;
23242;SDS011;11790;49.578;11.214;2023-02-28T23:03:08;41.17;;;18.83;;
23242;SDS011;11790;49.578;11.214;2023-02-28T23:08:08;37.67;;;18.23;;
23242;SDS011;11790;49.578;11.214;2023-02-28T23:13:08;41.22;;;19.70;;
23242;SDS011;11790;49.578;11.214;2023-02-28T23:18:08;35.13;;;17.40;;
23242;SDS011;11790;49.578;11.214;2023-02-28T23:23:08;40.97;;;17.40;;
23242;SDS011;11790;49.578;11.214;2023-02-28T23:28:09;40.67;;;18.73;;
23242;SDS011;11790;49.578;11.214;2023-02-28T23:33:09;41.70;;;18.60;;
23242;SDS011;11790;49.578;11.214;2023-02-28T23:38:09;43.35;;;19.88;;
23242;SDS011;11790;49.578;11.214;2023-02-28T23:43:09;40.55;;;18.65;;
23242;SDS011;11790;49.578;11.214;2023-02-28T23:48:09;44.45;;;20.02;;
23242;SDS011;11790;49.578;11.214;2023-02-28T23:53:09;43.83;;;18.13;;
23242;SDS011;11790;49.578;11.214;2023-02-28T23:58:10;37.88;;;18.55;;
